Main page
Satellite images 15-day forecastsClimateMarine weather Cyclones Lightning AirportsFAQ Newsletter About
Weather : Europe Africa North America South America Asia Australia-Oceania Others
Languages Contact

Bucharest, Romania

Henri Coandă

latitude: 44-33N, longitude: 026-06E, elevation: 95 m


METAR: LROP 272100Z 11003KT 090V150 9999 OVC018 M02/M05 Q1026 R08R/19//95 R08L/09//95 NOSIG
TAF: LROP 271700Z 2718/2818 09006KT 9999 BKN025 TEMPO 2810/2818 5000 -SN BKN010 BKN020 PROB30 2811/2815 -FZRA

Time: 23:36 (21:36 UTC)

Current weather observation

The report was made 36 minutes ago, at 21:00 UTC
Wind 3 kt from the East/Southeast, varying between East and South/Southeast
Temperature -2°C
Humidity 80%
Pressure 1026 hPa
Visibility 10 km or more
Overcast at a height of 1800 ft

Change units

Forecast

The report was made 4 hours and 36 minutes ago, at 17:00 UTC
Forecast valid from 27 at 18 UTC to 28 at 18 UTC
Wind 6 kt from the East
Visibility 10 km or more
Broken clouds at a height of 2500 ft
Temporary
from 28 at 10 UTC to 28 at 18 UTC
Visibility: 5000 m
Broken clouds at a height of 1000 ft
Broken clouds at a height of 2000 ft
light snow
Probability 30%
from 28 at 11 UTC to 28 at 15 UTC
light freezing rain
The information on this site is subject to a disclaimer
Weather : Europe Africa North America South America Asia Australia-Oceania Others
Satellite images 15-day forecastsClimateMarine weather Cyclones Lightning AirportsFAQ Languages Contact Newsletter About